sensor_id;sensor_type;location;lat;lon;timestamp;pressure;altitude;pressure_sealevel;temperature;humidity
54900;BME280;40801;41.924;25.562;2023-12-28T00:01:13;100676.88;;;5.71;65.79
54900;BME280;40801;41.924;25.562;2023-12-28T00:03:38;100685.94;;;5.70;66.30
54900;BME280;40801;41.924;25.562;2023-12-28T00:06:06;100683.53;;;5.68;66.39
54900;BME280;40801;41.924;25.562;2023-12-28T00:08:31;100684.31;;;5.69;66.21
54900;BME280;40801;41.924;25.562;2023-12-28T00:10:57;100686.69;;;5.65;66.26
54900;BME280;40801;41.924;25.562;2023-12-28T00:13:23;100679.13;;;5.62;66.18
54900;BME280;40801;41.924;25.562;2023-12-28T00:15:48;100682.28;;;5.59;66.84
54900;BME280;40801;41.924;25.562;2023-12-28T00:18:14;100677.09;;;5.52;66.44
54900;BME280;40801;41.924;25.562;2023-12-28T00:20:39;100675.66;;;5.62;65.99
54900;BME280;40801;41.924;25.562;2023-12-28T00:23:04;100710.34;;;5.56;66.39
54900;BME280;40801;41.924;25.562;2023-12-28T00:25:31;100714.31;;;5.54;66.75
54900;BME280;40801;41.924;25.562;2023-12-28T00:27:57;100713.25;;;5.55;66.60
54900;BME280;40801;41.924;25.562;2023-12-28T00:30:22;100703.38;;;5.44;66.85
54900;BME280;40801;41.924;25.562;2023-12-28T00:32:48;100707.94;;;5.43;67.01
54900;BME280;40801;41.924;25.562;2023-12-28T00:35:13;100717.97;;;5.36;67.32
54900;BME280;40801;41.924;25.562;2023-12-28T00:37:39;100706.50;;;5.24;67.58
54900;BME280;40801;41.924;25.562;2023-12-28T00:40:05;100715.00;;;5.21;67.53
54900;BME280;40801;41.924;25.562;2023-12-28T00:42:30;100725.22;;;5.24;67.38
54900;BME280;40801;41.924;25.562;2023-12-28T00:44:56;100724.50;;;5.17;67.48
54900;BME280;40801;41.924;25.562;2023-12-28T00:47:21;100724.78;;;5.04;67.74
54900;BME280;40801;41.924;25.562;2023-12-28T00:49:46;100720.50;;;5.03;67.65
54900;BME280;40801;41.924;25.562;2023-12-28T00:52:13;100730.03;;;4.98;67.70
54900;BME280;40801;41.924;25.562;2023-12-28T00:54:38;100725.16;;;4.95;67.85
54900;BME280;40801;41.924;25.562;2023-12-28T00:57:04;100726.78;;;4.96;67.84
54900;BME280;40801;41.924;25.562;2023-12-28T00:59:30;100719.56;;;4.85;68.25
54900;BME280;40801;41.924;25.562;2023-12-28T01:01:56;100719.00;;;4.83;68.22
54900;BME280;40801;41.924;25.562;2023-12-28T01:04:22;100714.13;;;4.80;68.08
54900;BME280;40801;41.924;25.562;2023-12-28T01:06:49;100722.59;;;4.89;67.62
54900;BME280;40801;41.924;25.562;2023-12-28T01:09:14;100720.63;;;4.84;67.78
54900;BME280;40801;41.924;25.562;2023-12-28T01:11:40;100722.03;;;4.75;67.89
54900;BME280;40801;41.924;25.562;2023-12-28T01:14:05;100732.03;;;4.68;68.67
54900;BME280;40801;41.924;25.562;2023-12-28T01:16:30;100728.66;;;4.73;68.04
54900;BME280;40801;41.924;25.562;2023-12-28T01:18:56;100724.81;;;4.69;68.62
54900;BME280;40801;41.924;25.562;2023-12-28T01:21:21;100729.81;;;4.65;68.63
54900;BME280;40801;41.924;25.562;2023-12-28T01:23:47;100727.38;;;4.63;68.25
54900;BME280;40801;41.924;25.562;2023-12-28T01:26:15;100728.53;;;4.56;68.24
54900;BME280;40801;41.924;25.562;2023-12-28T01:28:42;100722.59;;;4.42;68.62
54900;BME280;40801;41.924;25.562;2023-12-28T01:31:08;100725.97;;;4.38;68.99
54900;BME280;40801;41.924;25.562;2023-12-28T01:33:33;100725.63;;;4.34;69.20
54900;BME280;40801;41.924;25.562;2023-12-28T01:35:59;100725.75;;;4.39;69.08
54900;BME280;40801;41.924;25.562;2023-12-28T01:38:24;100722.84;;;4.41;69.03
54900;BME280;40801;41.924;25.562;2023-12-28T01:40:50;100719.81;;;4.49;68.95
54900;BME280;40801;41.924;25.562;2023-12-28T01:43:15;100724.91;;;4.50;68.96
54900;BME280;40801;41.924;25.562;2023-12-28T01:45:40;100722.25;;;4.50;69.19
54900;BME280;40801;41.924;25.562;2023-12-28T01:48:06;100727.59;;;4.50;68.46
54900;BME280;40801;41.924;25.562;2023-12-28T01:50:32;100723.19;;;4.44;68.28
54900;BME280;40801;41.924;25.562;2023-12-28T01:53:00;100732.00;;;4.45;68.42
54900;BME280;40801;41.924;25.562;2023-12-28T01:55:26;100728.28;;;4.46;68.55
54900;BME280;40801;41.924;25.562;2023-12-28T01:57:53;100724.22;;;4.43;68.49
54900;BME280;40801;41.924;25.562;2023-12-28T02:00:21;100725.97;;;4.38;68.70
54900;BME280;40801;41.924;25.562;2023-12-28T02:02:48;100737.31;;;4.33;69.07
54900;BME280;40801;41.924;25.562;2023-12-28T02:05:14;100732.13;;;4.38;68.49
54900;BME280;40801;41.924;25.562;2023-12-28T02:07:40;100726.31;;;4.41;68.29
54900;BME280;40801;41.924;25.562;2023-12-28T02:10:07;100733.53;;;4.41;68.79
54900;BME280;40801;41.924;25.562;2023-12-28T02:12:32;100730.72;;;4.35;68.60
54900;BME280;40801;41.924;25.562;2023-12-28T02:14:58;100731.63;;;4.29;68.93
54900;BME280;40801;41.924;25.562;2023-12-28T02:17:33;100726.75;;;4.26;69.05
54900;BME280;40801;41.924;25.562;2023-12-28T02:20:01;100729.09;;;4.34;68.84
54900;BME280;40801;41.924;25.562;2023-12-28T02:22:31;100729.53;;;4.31;69.50
54900;BME280;40801;41.924;25.562;2023-12-28T02:25:07;100728.84;;;4.24;69.71
54900;BME280;40801;41.924;25.562;2023-12-28T02:27:43;100734.88;;;4.20;70.02
54900;BME280;40801;41.924;25.562;2023-12-28T02:30:11;100734.88;;;4.20;69.04
54900;BME280;40801;41.924;25.562;2023-12-28T02:35:57;100725.22;;;4.07;70.50
54900;BME280;40801;41.924;25.562;2023-12-28T02:38:24;100732.78;;;4.10;69.21
54900;BME280;40801;41.924;25.562;2023-12-28T02:40:50;100741.25;;;4.07;69.86
54900;BME280;40801;41.924;25.562;2023-12-28T02:43:16;100744.94;;;4.06;69.25
54900;BME280;40801;41.924;25.562;2023-12-28T02:45:42;100743.44;;;4.10;69.58
54900;BME280;40801;41.924;25.562;2023-12-28T02:48:07;100742.41;;;4.11;69.74
54900;BME280;40801;41.924;25.562;2023-12-28T02:50:33;100741.81;;;4.09;69.55
54900;BME280;40801;41.924;25.562;2023-12-28T02:52:59;100745.75;;;4.07;69.00
54900;BME280;40801;41.924;25.562;2023-12-28T02:55:25;100753.16;;;4.04;69.34
54900;BME280;40801;41.924;25.562;2023-12-28T02:57:53;100749.69;;;4.04;69.32
54900;BME280;40801;41.924;25.562;2023-12-28T03:00:24;100754.88;;;3.99;69.45
54900;BME280;40801;41.924;25.562;2023-12-28T03:02:49;100752.56;;;3.91;69.83
54900;BME280;40801;41.924;25.562;2023-12-28T03:05:15;100752.28;;;3.81;70.44
54900;BME280;40801;41.924;25.562;2023-12-28T03:07:40;100742.38;;;3.69;70.59
54900;BME280;40801;41.924;25.562;2023-12-28T03:10:08;100756.16;;;3.66;70.46
54900;BME280;40801;41.924;25.562;2023-12-28T03:12:33;100752.81;;;3.71;70.09
54900;BME280;40801;41.924;25.562;2023-12-28T03:15:00;100756.75;;;3.68;70.25
54900;BME280;40801;41.924;25.562;2023-12-28T03:17:25;100756.38;;;3.65;70.76
54900;BME280;40801;41.924;25.562;2023-12-28T03:19:51;100755.94;;;3.68;70.50
54900;BME280;40801;41.924;25.562;2023-12-28T03:22:16;100760.47;;;3.67;70.40
54900;BME280;40801;41.924;25.562;2023-12-28T03:24:42;100755.25;;;3.72;70.31
54900;BME280;40801;41.924;25.562;2023-12-28T03:27:08;100742.59;;;3.68;70.81
54900;BME280;40801;41.924;25.562;2023-12-28T03:29:33;100750.16;;;3.71;70.79
54900;BME280;40801;41.924;25.562;2023-12-28T03:31:59;100757.09;;;3.72;71.08
54900;BME280;40801;41.924;25.562;2023-12-28T03:34:25;100762.44;;;3.72;70.59
54900;BME280;40801;41.924;25.562;2023-12-28T03:36:52;100753.78;;;3.77;70.11
54900;BME280;40801;41.924;25.562;2023-12-28T03:39:17;100760.53;;;3.79;70.00
54900;BME280;40801;41.924;25.562;2023-12-28T03:41:43;100764.06;;;3.73;70.42
54900;BME280;40801;41.924;25.562;2023-12-28T03:44:08;100769.03;;;3.69;70.77
54900;BME280;40801;41.924;25.562;2023-12-28T03:46:34;100766.31;;;3.76;69.60
54900;BME280;40801;41.924;25.562;2023-12-28T03:48:59;100762.50;;;3.84;69.49
54900;BME280;40801;41.924;25.562;2023-12-28T03:51:24;100765.28;;;3.77;70.23
54900;BME280;40801;41.924;25.562;2023-12-28T03:53:50;100756.47;;;3.77;70.01
54900;BME280;40801;41.924;25.562;2023-12-28T03:56:22;100765.94;;;3.72;70.75
54900;BME280;40801;41.924;25.562;2023-12-28T03:58:49;100758.16;;;3.71;70.76
54900;BME280;40801;41.924;25.562;2023-12-28T04:01:16;100755.84;;;3.74;70.47
54900;BME280;40801;41.924;25.562;2023-12-28T04:03:42;100753.34;;;3.80;70.63
54900;BME280;40801;41.924;25.562;2023-12-28T04:06:07;100749.28;;;3.89;70.52
54900;BME280;40801;41.924;25.562;2023-12-28T04:08:33;100748.13;;;3.85;70.74
54900;BME280;40801;41.924;25.562;2023-12-28T04:10:58;100739.91;;;3.86;70.63
54900;BME280;40801;41.924;25.562;2023-12-28T04:13:24;100742.78;;;3.85;70.44
54900;BME280;40801;41.924;25.562;2023-12-28T04:15:49;100748.84;;;3.92;70.43
54900;BME280;40801;41.924;25.562;2023-12-28T04:18:14;100753.25;;;3.98;70.70
54900;BME280;40801;41.924;25.562;2023-12-28T04:20:42;100755.69;;;3.99;70.63
54900;BME280;40801;41.924;25.562;2023-12-28T04:23:07;100753.38;;;4.03;70.00
54900;BME280;40801;41.924;25.562;2023-12-28T04:25:33;100751.47;;;4.10;69.48
54900;BME280;40801;41.924;25.562;2023-12-28T04:27:58;100756.56;;;4.12;69.12
54900;BME280;40801;41.924;25.562;2023-12-28T04:30:24;100754.47;;;4.14;70.03
54900;BME280;40801;41.924;25.562;2023-12-28T04:32:49;100747.75;;;4.11;69.27
54900;BME280;40801;41.924;25.562;2023-12-28T04:35:14;100756.22;;;4.08;69.75
54900;BME280;40801;41.924;25.562;2023-12-28T04:37:40;100755.34;;;3.96;70.51
54900;BME280;40801;41.924;25.562;2023-12-28T04:40:06;100761.47;;;3.85;70.62
54900;BME280;40801;41.924;25.562;2023-12-28T04:42:31;100760.53;;;3.79;70.26
54900;BME280;40801;41.924;25.562;2023-12-28T04:44:56;100762.50;;;3.84;70.38
54900;BME280;40801;41.924;25.562;2023-12-28T04:47:22;100771.91;;;3.86;70.24
54900;BME280;40801;41.924;25.562;2023-12-28T04:49:47;100773.31;;;3.89;70.02
54900;BME280;40801;41.924;25.562;2023-12-28T04:52:13;100766.50;;;3.74;70.50
54900;BME280;40801;41.924;25.562;2023-12-28T04:54:41;100765.78;;;3.67;70.71
54900;BME280;40801;41.924;25.562;2023-12-28T04:57:06;100763.56;;;3.64;70.62
54900;BME280;40801;41.924;25.562;2023-12-28T04:59:40;100758.34;;;3.58;70.69
54900;BME280;40801;41.924;25.562;2023-12-28T05:02:06;100764.47;;;3.58;70.52
54900;BME280;40801;41.924;25.562;2023-12-28T05:04:31;100765.63;;;3.51;71.23
54900;BME280;40801;41.924;25.562;2023-12-28T05:06:57;100773.16;;;3.54;70.95
54900;BME280;40801;41.924;25.562;2023-12-28T05:09:22;100776.66;;;3.54;70.51
54900;BME280;40801;41.924;25.562;2023-12-28T05:11:48;100777.16;;;3.45;70.84
54900;BME280;40801;41.924;25.562;2023-12-28T05:14:13;100778.59;;;3.47;70.74
54900;BME280;40801;41.924;25.562;2023-12-28T05:16:38;100772.63;;;3.45;71.12
54900;BME280;40801;41.924;25.562;2023-12-28T05:19:04;100774.19;;;3.34;70.81
54900;BME280;40801;41.924;25.562;2023-12-28T05:21:29;100781.59;;;3.32;71.03
54900;BME280;40801;41.924;25.562;2023-12-28T05:23:55;100780.50;;;3.40;70.27
54900;BME280;40801;41.924;25.562;2023-12-28T05:26:20;100773.97;;;3.36;70.71
54900;BME280;40801;41.924;25.562;2023-12-28T05:28:45;100765.38;;;3.34;71.07
54900;BME280;40801;41.924;25.562;2023-12-28T05:31:11;100779.16;;;3.31;71.05
54900;BME280;40801;41.924;25.562;2023-12-28T05:33:38;100777.09;;;3.33;70.91
54900;BME280;40801;41.924;25.562;2023-12-28T05:36:04;100772.34;;;3.35;70.84
54900;BME280;40801;41.924;25.562;2023-12-28T05:38:30;100768.50;;;3.31;71.15
54900;BME280;40801;41.924;25.562;2023-12-28T05:40:55;100781.38;;;3.34;71.03
54900;BME280;40801;41.924;25.562;2023-12-28T05:43:20;100779.75;;;3.33;71.24
54900;BME280;40801;41.924;25.562;2023-12-28T05:45:46;100772.88;;;3.25;71.58
54900;BME280;40801;41.924;25.562;2023-12-28T05:48:11;100762.41;;;3.42;70.20
54900;BME280;40801;41.924;25.562;2023-12-28T05:50:37;100770.41;;;3.42;70.76
54900;BME280;40801;41.924;25.562;2023-12-28T05:53:02;100763.31;;;3.36;70.93
54900;BME280;40801;41.924;25.562;2023-12-28T05:55:27;100776.06;;;3.34;71.25
54900;BME280;40801;41.924;25.562;2023-12-28T05:57:53;100781.53;;;3.39;71.10
54900;BME280;40801;41.924;25.562;2023-12-28T06:00:18;100777.16;;;3.45;70.82
54900;BME280;40801;41.924;25.562;2023-12-28T06:02:44;100785.16;;;3.45;70.80
54900;BME280;40801;41.924;25.562;2023-12-28T06:05:12;100788.84;;;3.43;70.88
54900;BME280;40801;41.924;25.562;2023-12-28T06:07:37;100791.06;;;3.47;71.31
54900;BME280;40801;41.924;25.562;2023-12-28T06:10:03;100792.88;;;3.53;71.08
54900;BME280;40801;41.924;25.562;2023-12-28T06:12:28;100788.00;;;3.50;70.66
54900;BME280;40801;41.924;25.562;2023-12-28T06:14:53;100791.47;;;3.50;71.02
54900;BME280;40801;41.924;25.562;2023-12-28T06:17:19;100784.41;;;3.56;71.19
54900;BME280;40801;41.924;25.562;2023-12-28T06:19:44;100791.59;;;3.55;71.05
54900;BME280;40801;41.924;25.562;2023-12-28T06:22:10;100788.81;;;3.50;70.92
54900;BME280;40801;41.924;25.562;2023-12-28T06:24:39;100795.09;;;3.56;71.14
54900;BME280;40801;41.924;25.562;2023-12-28T06:27:07;100795.81;;;3.63;71.04
54900;BME280;40801;41.924;25.562;2023-12-28T06:29:32;100799.88;;;3.65;70.56
54900;BME280;40801;41.924;25.562;2023-12-28T06:31:58;100801.00;;;3.76;70.78
54900;BME280;40801;41.924;25.562;2023-12-28T06:34:23;100802.91;;;3.87;69.92
54900;BME280;40801;41.924;25.562;2023-12-28T06:36:48;100805.25;;;3.95;70.29
54900;BME280;40801;41.924;25.562;2023-12-28T06:39:14;100801.19;;;4.04;70.47
54900;BME280;40801;41.924;25.562;2023-12-28T06:41:39;100805.88;;;4.09;70.64
54900;BME280;40801;41.924;25.562;2023-12-28T06:44:05;100804.06;;;4.21;70.37
54900;BME280;40801;41.924;25.562;2023-12-28T06:46:30;100804.78;;;4.28;69.83
54900;BME280;40801;41.924;25.562;2023-12-28T06:48:55;100804.31;;;4.31;69.93
54900;BME280;40801;41.924;25.562;2023-12-28T06:51:23;100800.28;;;4.41;69.59
54900;BME280;40801;41.924;25.562;2023-12-28T06:53:48;100802.28;;;4.45;69.25
54900;BME280;40801;41.924;25.562;2023-12-28T06:56:14;100809.59;;;4.50;69.25
54900;BME280;40801;41.924;25.562;2023-12-28T06:58:40;100811.47;;;4.61;68.97
54900;BME280;40801;41.924;25.562;2023-12-28T07:01:06;100811.38;;;4.68;69.01
54900;BME280;40801;41.924;25.562;2023-12-28T07:03:32;100810.66;;;4.72;69.47
54900;BME280;40801;41.924;25.562;2023-12-28T07:06:01;100821.34;;;4.84;69.79
54900;BME280;40801;41.924;25.562;2023-12-28T07:08:28;100817.53;;;4.91;69.50
54900;BME280;40801;41.924;25.562;2023-12-28T07:10:54;100808.72;;;5.03;68.61
54900;BME280;40801;41.924;25.562;2023-12-28T07:13:19;100806.97;;;5.08;68.66
54900;BME280;40801;41.924;25.562;2023-12-28T07:15:45;100809.84;;;5.18;68.55
54900;BME280;40801;41.924;25.562;2023-12-28T07:18:10;100810.78;;;5.24;69.11
54900;BME280;40801;41.924;25.562;2023-12-28T07:20:36;100821.59;;;5.29;69.20
54900;BME280;40801;41.924;25.562;2023-12-28T07:23:02;100819.94;;;5.40;68.65
54900;BME280;40801;41.924;25.562;2023-12-28T07:25:28;100823.88;;;5.49;68.19
54900;BME280;40801;41.924;25.562;2023-12-28T07:27:53;100827.50;;;5.54;68.63
54900;BME280;40801;41.924;25.562;2023-12-28T07:30:18;100833.44;;;5.56;69.07
54900;BME280;40801;41.924;25.562;2023-12-28T07:32:44;100833.06;;;5.65;69.09
54900;BME280;40801;41.924;25.562;2023-12-28T07:35:10;100837.22;;;5.72;68.45
54900;BME280;40801;41.924;25.562;2023-12-28T07:37:36;100836.97;;;5.85;68.29
54900;BME280;40801;41.924;25.562;2023-12-28T07:40:02;100833.44;;;5.97;68.30
54900;BME280;40801;41.924;25.562;2023-12-28T07:42:28;100832.38;;;6.09;67.86
54900;BME280;40801;41.924;25.562;2023-12-28T07:44:54;100840.09;;;6.22;67.53
54900;BME280;40801;41.924;25.562;2023-12-28T07:47:19;100839.22;;;6.34;67.34
54900;BME280;40801;41.924;25.562;2023-12-28T07:49:45;100840.72;;;6.41;67.34
54900;BME280;40801;41.924;25.562;2023-12-28T07:52:10;100832.03;;;6.51;66.81
54900;BME280;40801;41.924;25.562;2023-12-28T07:54:35;100834.56;;;6.58;67.01
54900;BME280;40801;41.924;25.562;2023-12-28T07:57:01;100839.09;;;6.57;67.36
54900;BME280;40801;41.924;25.562;2023-12-28T07:59:26;100839.19;;;6.62;67.29
54900;BME280;40801;41.924;25.562;2023-12-28T08:01:52;100836.44;;;6.74;66.99
54900;BME280;40801;41.924;25.562;2023-12-28T08:04:17;100839.34;;;6.89;66.94
54900;BME280;40801;41.924;25.562;2023-12-28T08:06:43;100837.72;;;6.88;66.94
54900;BME280;40801;41.924;25.562;2023-12-28T08:09:08;100837.41;;;7.01;67.04
54900;BME280;40801;41.924;25.562;2023-12-28T08:11:34;100838.69;;;7.15;66.42
54900;BME280;40801;41.924;25.562;2023-12-28T08:14:00;100825.81;;;7.34;65.85
54900;BME280;40801;41.924;25.562;2023-12-28T08:16:25;100830.56;;;7.49;65.74
54900;BME280;40801;41.924;25.562;2023-12-28T08:18:51;100828.06;;;7.64;65.33
54900;BME280;40801;41.924;25.562;2023-12-28T08:21:17;100828.84;;;7.82;64.15
54900;BME280;40801;41.924;25.562;2023-12-28T08:23:42;100827.13;;;7.97;63.79
54900;BME280;40801;41.924;25.562;2023-12-28T08:26:08;100830.41;;;8.04;63.70
54900;BME280;40801;41.924;25.562;2023-12-28T08:28:33;100837.28;;;8.17;63.30
54900;BME280;40801;41.924;25.562;2023-12-28T08:30:58;100828.00;;;8.30;62.86
54900;BME280;40801;41.924;25.562;2023-12-28T08:33:24;100820.13;;;8.45;62.25
54900;BME280;40801;41.924;25.562;2023-12-28T08:35:49;100827.19;;;8.56;61.40
54900;BME280;40801;41.924;25.562;2023-12-28T08:38:15;100820.03;;;8.67;62.01
54900;BME280;40801;41.924;25.562;2023-12-28T08:40:41;100813.31;;;9.54;62.69
54900;BME280;40801;41.924;25.562;2023-12-28T08:43:06;100810.63;;;11.03;61.38
54900;BME280;40801;41.924;25.562;2023-12-28T08:45:32;100802.25;;;12.33;58.19
54900;BME280;40801;41.924;25.562;2023-12-28T08:47:59;100803.22;;;13.11;55.60
54900;BME280;40801;41.924;25.562;2023-12-28T08:50:25;100794.56;;;13.09;53.14
54900;BME280;40801;41.924;25.562;2023-12-28T08:52:50;100792.22;;;13.26;52.04
54900;BME280;40801;41.924;25.562;2023-12-28T08:55:16;100792.03;;;14.26;50.46
54900;BME280;40801;41.924;25.562;2023-12-28T08:57:41;100785.47;;;15.39;49.36
54900;BME280;40801;41.924;25.562;2023-12-28T09:00:07;100780.41;;;16.23;47.01
54900;BME280;40801;41.924;25.562;2023-12-28T09:02:33;100771.00;;;17.36;45.77
54900;BME280;40801;41.924;25.562;2023-12-28T09:04:58;100767.91;;;18.38;44.29
54900;BME280;40801;41.924;25.562;2023-12-28T09:07:24;100766.63;;;19.16;41.94
54900;BME280;40801;41.924;25.562;2023-12-28T09:09:49;100764.13;;;19.91;40.37
54900;BME280;40801;41.924;25.562;2023-12-28T09:12:15;100756.81;;;20.58;38.94
54900;BME280;40801;41.924;25.562;2023-12-28T09:14:41;100747.75;;;21.02;37.10
54900;BME280;40801;41.924;25.562;2023-12-28T09:17:06;100745.16;;;21.30;35.93
54900;BME280;40801;41.924;25.562;2023-12-28T09:19:31;100742.25;;;21.76;34.84
54900;BME280;40801;41.924;25.562;2023-12-28T09:21:57;100738.97;;;22.38;33.64
54900;BME280;40801;41.924;25.562;2023-12-28T09:24:22;100739.94;;;22.30;32.68
54900;BME280;40801;41.924;25.562;2023-12-28T09:26:48;100728.00;;;22.38;32.53
54900;BME280;40801;41.924;25.562;2023-12-28T09:29:13;100719.00;;;22.69;32.37
54900;BME280;40801;41.924;25.562;2023-12-28T09:31:39;100714.91;;;22.79;31.58
54900;BME280;40801;41.924;25.562;2023-12-28T09:34:04;100713.00;;;22.95;31.56
54900;BME280;40801;41.924;25.562;2023-12-28T09:36:30;100711.22;;;22.87;30.93
54900;BME280;40801;41.924;25.562;2023-12-28T09:38:56;100703.63;;;23.31;30.30
54900;BME280;40801;41.924;25.562;2023-12-28T09:41:27;100694.63;;;23.50;29.49
54900;BME280;40801;41.924;25.562;2023-12-28T09:44:07;100687.22;;;23.89;27.17
54900;BME280;40801;41.924;25.562;2023-12-28T09:46:34;100683.66;;;23.69;28.94
54900;BME280;40801;41.924;25.562;2023-12-28T09:49:00;100677.78;;;24.29;28.09
54900;BME280;40801;41.924;25.562;2023-12-28T09:51:27;100683.81;;;24.80;27.70
54900;BME280;40801;41.924;25.562;2023-12-28T09:53:52;100678.59;;;24.98;27.18
54900;BME280;40801;41.924;25.562;2023-12-28T09:56:18;100674.78;;;25.32;26.23
54900;BME280;40801;41.924;25.562;2023-12-28T09:58:44;100662.81;;;25.51;26.45
54900;BME280;40801;41.924;25.562;2023-12-28T10:01:13;100664.34;;;25.75;25.24
54900;BME280;40801;41.924;25.562;2023-12-28T10:03:39;100667.09;;;26.09;25.56
54900;BME280;40801;41.924;25.562;2023-12-28T10:06:05;100663.63;;;26.15;25.20
54900;BME280;40801;41.924;25.562;2023-12-28T10:08:30;100672.91;;;26.00;25.61
54900;BME280;40801;41.924;25.562;2023-12-28T10:10:56;100668.31;;;26.11;25.64
54900;BME280;40801;41.924;25.562;2023-12-28T10:13:25;100661.19;;;26.10;25.57
54900;BME280;40801;41.924;25.562;2023-12-28T10:15:50;100661.00;;;26.70;24.61
54900;BME280;40801;41.924;25.562;2023-12-28T10:18:19;100646.75;;;26.68;24.21
54900;BME280;40801;41.924;25.562;2023-12-28T10:20:49;100637.13;;;26.51;24.54
54900;BME280;40801;41.924;25.562;2023-12-28T10:23:16;100641.31;;;26.82;25.08
54900;BME280;40801;41.924;25.562;2023-12-28T10:25:42;100638.91;;;26.77;24.90
54900;BME280;40801;41.924;25.562;2023-12-28T10:28:07;100626.72;;;26.85;24.60
54900;BME280;40801;41.924;25.562;2023-12-28T10:30:33;100624.41;;;26.91;24.05
54900;BME280;40801;41.924;25.562;2023-12-28T10:32:58;100613.94;;;27.22;24.10
54900;BME280;40801;41.924;25.562;2023-12-28T10:35:23;100613.16;;;27.28;24.10
54900;BME280;40801;41.924;25.562;2023-12-28T10:37:52;100609.00;;;27.63;22.63
54900;BME280;40801;41.924;25.562;2023-12-28T10:40:21;100611.44;;;27.79;22.94
54900;BME280;40801;41.924;25.562;2023-12-28T10:42:54;100601.00;;;27.47;22.72
54900;BME280;40801;41.924;25.562;2023-12-28T10:45:23;100590.38;;;27.63;22.53
54900;BME280;40801;41.924;25.562;2023-12-28T10:48:05;100583.13;;;26.72;21.55
54900;BME280;40801;41.924;25.562;2023-12-28T10:50:39;100586.81;;;26.90;22.11
54900;BME280;40801;41.924;25.562;2023-12-28T10:53:26;100582.59;;;27.07;21.48
54900;BME280;40801;41.924;25.562;2023-12-28T11:01:31;100563.94;;;27.94;22.02
54900;BME280;40801;41.924;25.562;2023-12-28T11:04:23;100563.91;;;27.87;20.55
54900;BME280;40801;41.924;25.562;2023-12-28T11:06:50;100551.69;;;28.10;22.15
54900;BME280;40801;41.924;25.562;2023-12-28T11:09:17;100543.34;;;28.10;21.60
54900;BME280;40801;41.924;25.562;2023-12-28T11:11:44;100533.44;;;28.73;21.51
54900;BME280;40801;41.924;25.562;2023-12-28T11:14:10;100536.56;;;28.99;21.47
54900;BME280;40801;41.924;25.562;2023-12-28T11:16:37;100540.88;;;29.08;20.72
54900;BME280;40801;41.924;25.562;2023-12-28T11:19:04;100526.34;;;28.40;21.33
54900;BME280;40801;41.924;25.562;2023-12-28T11:21:31;100522.38;;;28.30;21.39
54900;BME280;40801;41.924;25.562;2023-12-28T11:23:58;100518.00;;;28.50;21.99
54900;BME280;40801;41.924;25.562;2023-12-28T11:26:24;100516.34;;;28.92;22.23
54900;BME280;40801;41.924;25.562;2023-12-28T11:28:49;100518.00;;;28.25;21.87
54900;BME280;40801;41.924;25.562;2023-12-28T11:31:16;100513.16;;;28.90;21.34
54900;BME280;40801;41.924;25.562;2023-12-28T11:33:51;100504.44;;;28.98;21.50
54900;BME280;40801;41.924;25.562;2023-12-28T11:36:44;100493.28;;;29.06;20.67
54900;BME280;40801;41.924;25.562;2023-12-28T11:39:10;100491.91;;;29.49;21.03
54900;BME280;40801;41.924;25.562;2023-12-28T11:41:36;100493.66;;;29.84;20.26
54900;BME280;40801;41.924;25.562;2023-12-28T11:44:05;100497.72;;;29.69;20.70
54900;BME280;40801;41.924;25.562;2023-12-28T11:46:35;100494.78;;;29.28;20.86
54900;BME280;40801;41.924;25.562;2023-12-28T11:49:07;100491.13;;;29.38;21.06
54900;BME280;40801;41.924;25.562;2023-12-28T11:51:38;100488.66;;;30.17;20.51
54900;BME280;40801;41.924;25.562;2023-12-28T11:54:04;100486.00;;;30.44;20.29
54900;BME280;40801;41.924;25.562;2023-12-28T11:56:32;100487.00;;;30.23;20.73
54900;BME280;40801;41.924;25.562;2023-12-28T11:58:58;100466.66;;;29.81;20.98
54900;BME280;40801;41.924;25.562;2023-12-28T12:01:24;100474.44;;;30.04;20.91
54900;BME280;40801;41.924;25.562;2023-12-28T12:03:50;100466.91;;;29.98;21.07
54900;BME280;40801;41.924;25.562;2023-12-28T12:06:15;100457.38;;;30.43;20.36
54900;BME280;40801;41.924;25.562;2023-12-28T12:08:47;100450.72;;;29.89;20.33
54900;BME280;40801;41.924;25.562;2023-12-28T12:11:12;100455.41;;;29.96;20.70
54900;BME280;40801;41.924;25.562;2023-12-28T12:13:38;100458.13;;;30.10;20.79
54900;BME280;40801;41.924;25.562;2023-12-28T12:16:04;100453.09;;;29.28;20.72
54900;BME280;40801;41.924;25.562;2023-12-28T12:18:34;100450.72;;;29.26;21.21
54900;BME280;40801;41.924;25.562;2023-12-28T12:21:01;100449.16;;;29.22;21.51
54900;BME280;40801;41.924;25.562;2023-12-28T12:23:28;100447.41;;;29.53;20.91
54900;BME280;40801;41.924;25.562;2023-12-28T12:25:53;100443.56;;;29.88;21.04
54900;BME280;40801;41.924;25.562;2023-12-28T12:28:18;100452.06;;;29.67;21.27
54900;BME280;40801;41.924;25.562;2023-12-28T12:30:53;100453.38;;;30.03;19.93
54900;BME280;40801;41.924;25.562;2023-12-28T12:33:20;100447.03;;;29.99;20.84
54900;BME280;40801;41.924;25.562;2023-12-28T12:35:46;100438.03;;;29.84;20.71
54900;BME280;40801;41.924;25.562;2023-12-28T12:38:11;100433.78;;;30.17;20.54
54900;BME280;40801;41.924;25.562;2023-12-28T12:40:36;100438.81;;;30.30;20.02
54900;BME280;40801;41.924;25.562;2023-12-28T12:43:02;100449.06;;;30.40;20.24
54900;BME280;40801;41.924;25.562;2023-12-28T12:45:28;100436.09;;;30.64;20.07
54900;BME280;40801;41.924;25.562;2023-12-28T12:47:53;100434.28;;;30.46;20.36
54900;BME280;40801;41.924;25.562;2023-12-28T12:50:19;100431.59;;;30.36;21.01
54900;BME280;40801;41.924;25.562;2023-12-28T12:52:45;100434.63;;;30.14;21.12